createdAt,value
2023-10-20T00:00:32.441Z,23.30
2023-10-20T00:03:26.271Z,24.70
2023-10-20T00:06:00.228Z,21.40
2023-10-20T00:08:33.979Z,21.60
2023-10-20T00:11:11.112Z,23.70
2023-10-20T00:13:44.916Z,21.40
2023-10-20T00:16:25.510Z,23.20
2023-10-20T00:18:59.178Z,22.80
2023-10-20T00:21:32.880Z,23.10
2023-10-20T00:24:07.090Z,22.40
2023-10-20T00:26:41.121Z,21.50
2023-10-20T00:29:14.983Z,22.80
2023-10-20T00:31:49.288Z,23.10
2023-10-20T00:34:23.106Z,22.90
2023-10-20T00:36:57.035Z,23.90
2023-10-20T00:39:31.477Z,24.00
2023-10-20T00:42:05.351Z,23.60
2023-10-20T00:44:40.390Z,23.30
2023-10-20T00:47:14.329Z,21.80
2023-10-20T00:49:49.138Z,23.90
2023-10-20T00:52:23.548Z,24.10
2023-10-20T00:54:57.765Z,23.70
2023-10-20T00:57:31.590Z,25.20
2023-10-20T01:00:07.060Z,24.30
2023-10-20T01:02:41.239Z,23.50
2023-10-20T01:05:20.923Z,25.20
2023-10-20T01:07:54.646Z,24.80
2023-10-20T01:10:28.572Z,24.70
2023-10-20T01:13:02.338Z,23.60
2023-10-20T01:15:36.504Z,23.70
2023-10-20T01:18:12.515Z,23.90
2023-10-20T01:20:46.437Z,24.20
2023-10-20T01:23:19.564Z,22.50
2023-10-20T01:25:54.547Z,22.30
2023-10-20T01:28:27.477Z,24.80
2023-10-20T01:31:02.395Z,16.50
2023-10-20T01:33:36.187Z,22.90
2023-10-20T01:36:09.370Z,22.20
2023-10-20T01:38:42.399Z,23.00
2023-10-20T01:41:15.348Z,23.40
2023-10-20T01:43:48.746Z,19.50
2023-10-20T01:46:21.834Z,21.10
2023-10-20T01:48:55.069Z,19.70
2023-10-20T01:51:27.998Z,25.20
2023-10-20T01:54:01.219Z,23.40
2023-10-20T01:56:35.677Z,24.10
2023-10-20T01:59:08.892Z,23.20
2023-10-20T02:01:41.868Z,23.80
2023-10-20T02:04:14.891Z,21.60
2023-10-20T02:06:48.993Z,24.70
2023-10-20T02:09:21.962Z,26.10
2023-10-20T02:11:58.535Z,24.40
2023-10-20T02:14:31.914Z,24.00
2023-10-20T02:17:05.338Z,22.20
2023-10-20T02:19:38.378Z,21.00
2023-10-20T02:22:11.355Z,22.30
2023-10-20T02:24:46.030Z,24.10
2023-10-20T02:27:18.874Z,25.40
2023-10-20T02:29:51.843Z,23.70
2023-10-20T02:32:25.597Z,24.80
2023-10-20T02:34:59.655Z,23.70
2023-10-20T02:37:33.566Z,25.10
2023-10-20T02:40:09.203Z,24.80
2023-10-20T02:42:45.654Z,24.50
2023-10-20T02:45:19.717Z,23.20
2023-10-20T02:47:55.179Z,24.00
2023-10-20T02:50:31.362Z,34.80
2023-10-20T02:53:05.224Z,24.50
2023-10-20T02:55:39.235Z,24.40
2023-10-20T02:58:13.501Z,23.30
2023-10-20T03:00:48.328Z,22.40
2023-10-20T03:03:22.475Z,21.90
2023-10-20T03:05:56.480Z,21.50
2023-10-20T03:08:30.272Z,22.90
2023-10-20T03:11:05.804Z,22.50
2023-10-20T03:13:39.859Z,25.80
2023-10-20T03:16:13.771Z,23.00
2023-10-20T03:18:47.515Z,22.30
2023-10-20T03:21:23.267Z,24.40
2023-10-20T03:23:57.219Z,24.30
2023-10-20T03:26:31.142Z,20.10
2023-10-20T03:29:06.474Z,21.30
2023-10-20T03:31:40.449Z,20.80
2023-10-20T03:34:14.341Z,20.60
2023-10-20T03:36:48.807Z,22.00
2023-10-20T03:39:22.889Z,23.50
2023-10-20T03:41:56.728Z,23.50
2023-10-20T03:44:30.484Z,20.50
2023-10-20T03:47:07.194Z,20.30
2023-10-20T03:49:41.163Z,20.10
2023-10-20T03:52:15.060Z,22.50
2023-10-20T03:54:49.375Z,22.80
2023-10-20T03:57:23.162Z,20.00
2023-10-20T03:59:56.857Z,21.50
2023-10-20T04:02:30.680Z,19.70
2023-10-20T04:05:04.406Z,20.20
2023-10-20T04:07:38.538Z,21.00
2023-10-20T04:10:13.969Z,22.00
2023-10-20T04:12:48.642Z,20.20
2023-10-20T04:15:27.442Z,18.30
2023-10-20T04:18:01.219Z,20.30
2023-10-20T04:20:37.836Z,19.80
2023-10-20T04:23:12.005Z,20.50
2023-10-20T04:25:54.197Z,21.00
2023-10-20T04:28:34.243Z,20.10
2023-10-20T04:31:24.814Z,20.30
2023-10-20T04:34:16.687Z,24.00
2023-10-20T04:37:08.877Z,21.20
2023-10-20T04:39:59.425Z,20.60
2023-10-20T04:43:05.808Z,19.90
2023-10-20T04:45:56.486Z,19.20
2023-10-20T04:48:53.355Z,21.20
2023-10-20T04:51:46.736Z,21.00
2023-10-20T04:54:24.491Z,20.10
2023-10-20T04:57:11.574Z,21.10
2023-10-20T04:59:46.150Z,11.00
2023-10-20T05:02:33.878Z,19.40
2023-10-20T05:05:24.444Z,19.70
2023-10-20T05:07:59.954Z,19.50
2023-10-20T05:10:33.012Z,20.60
2023-10-20T05:13:06.758Z,19.20
2023-10-20T05:15:42.066Z,20.50
2023-10-20T05:18:16.464Z,17.60
2023-10-20T05:20:49.700Z,19.70
2023-10-20T05:23:22.840Z,20.50
2023-10-20T05:25:55.994Z,17.90
2023-10-20T05:28:29.153Z,19.90
2023-10-20T05:31:02.404Z,20.10
2023-10-20T05:33:36.052Z,20.00
2023-10-20T05:36:09.968Z,20.70
2023-10-20T05:38:43.516Z,19.00
2023-10-20T05:41:16.704Z,19.90
2023-10-20T05:43:49.850Z,19.90
2023-10-20T05:46:23.196Z,15.00
2023-10-20T05:48:56.510Z,19.80
2023-10-20T05:51:29.670Z,19.90
2023-10-20T05:54:04.819Z,21.10
2023-10-20T05:56:37.974Z,20.90
2023-10-20T05:59:11.178Z,18.40
2023-10-20T06:01:44.585Z,19.60
2023-10-20T06:04:17.885Z,15.50
2023-10-20T06:06:51.104Z,20.10
2023-10-20T06:09:26.719Z,21.70
2023-10-20T06:11:59.857Z,22.20
2023-10-20T06:14:33.603Z,20.70
2023-10-20T06:17:06.929Z,19.00
2023-10-20T06:19:40.608Z,19.50
2023-10-20T06:22:13.841Z,20.70
2023-10-20T06:24:47.846Z,20.50
2023-10-20T06:27:20.967Z,20.20
2023-10-20T06:29:57.583Z,17.80
2023-10-20T06:32:33.748Z,17.80
2023-10-20T06:35:10.659Z,18.20
2023-10-20T06:37:48.078Z,19.20
2023-10-20T06:40:22.217Z,20.90
2023-10-20T06:42:55.362Z,15.90
2023-10-20T06:45:28.623Z,19.40
2023-10-20T06:48:02.163Z,14.40
2023-10-20T06:50:36.129Z,20.60
2023-10-20T06:53:09.681Z,20.10
2023-10-20T06:56:05.408Z,20.40
2023-10-20T06:58:40.024Z,20.70
2023-10-20T07:01:13.354Z,20.90
2023-10-20T07:03:46.847Z,19.10
2023-10-20T07:06:22.152Z,18.70
2023-10-20T07:08:55.373Z,19.30
2023-10-20T07:11:29.028Z,21.30
2023-10-20T07:14:02.195Z,21.30
2023-10-20T07:16:35.593Z,18.60
2023-10-20T07:19:08.970Z,21.30
2023-10-20T07:21:42.802Z,21.10
2023-10-20T07:24:16.531Z,19.80
2023-10-20T07:26:50.916Z,21.00
2023-10-20T07:29:24.264Z,19.90
2023-10-20T07:31:57.788Z,19.50
2023-10-20T07:34:31.117Z,21.10
2023-10-20T07:37:04.540Z,19.00
2023-10-20T07:39:38.524Z,21.90
2023-10-20T07:42:11.815Z,21.50
2023-10-20T07:44:45.346Z,21.80
2023-10-20T07:47:18.555Z,17.60
2023-10-20T07:49:52.808Z,21.90
2023-10-20T07:52:26.054Z,19.70
2023-10-20T07:54:59.381Z,21.30
2023-10-20T07:57:32.466Z,18.40
2023-10-20T08:00:06.778Z,17.00
2023-10-20T08:02:45.827Z,20.50
2023-10-20T08:05:19.737Z,19.60
2023-10-20T08:07:53.140Z,17.90
2023-10-20T08:10:26.395Z,18.60
2023-10-20T08:12:59.789Z,20.40
2023-10-20T08:15:33.564Z,19.60
2023-10-20T08:18:08.641Z,16.10
2023-10-20T08:20:41.954Z,21.70
2023-10-20T08:23:15.285Z,20.20
2023-10-20T08:25:48.405Z,20.00
2023-10-20T08:28:21.699Z,20.40
2023-10-20T08:30:56.116Z,20.20
2023-10-20T08:33:29.619Z,19.10
2023-10-20T08:36:04.112Z,17.20
2023-10-20T08:38:37.428Z,17.40
2023-10-20T08:41:15.513Z,19.70
2023-10-20T08:43:49.560Z,18.70
2023-10-20T08:46:24.985Z,16.50
2023-10-20T08:48:59.257Z,19.80
2023-10-20T08:51:32.511Z,18.70
2023-10-20T08:54:06.275Z,19.60
2023-10-20T08:56:41.891Z,19.80
2023-10-20T08:59:15.114Z,19.10
2023-10-20T09:01:48.817Z,18.70
2023-10-20T09:04:29.601Z,17.60
2023-10-20T09:07:06.067Z,19.40
2023-10-20T09:12:15.736Z,18.70
2023-10-20T09:14:49.377Z,21.00
2023-10-20T09:17:26.943Z,20.00
2023-10-20T09:20:13.067Z,18.10
2023-10-20T09:22:46.611Z,16.80
2023-10-20T09:25:20.067Z,19.20
2023-10-20T09:27:53.394Z,18.70
2023-10-20T09:30:27.879Z,18.70
2023-10-20T09:33:01.286Z,18.20
2023-10-20T09:35:40.791Z,18.90
2023-10-20T09:38:15.106Z,19.60
2023-10-20T09:40:48.460Z,19.10
2023-10-20T09:43:26.904Z,18.30
2023-10-20T09:46:06.544Z,19.40
2023-10-20T09:48:42.298Z,20.10
2023-10-20T09:51:16.716Z,20.40
2023-10-20T09:53:50.533Z,19.20
2023-10-20T09:56:24.135Z,20.20
2023-10-20T09:59:03.520Z,17.50
2023-10-20T10:01:39.239Z,20.70
2023-10-20T10:04:12.769Z,18.80
2023-10-20T10:06:49.954Z,20.60
2023-10-20T10:09:23.103Z,19.20
2023-10-20T10:11:59.311Z,20.10
2023-10-20T10:14:34.118Z,19.30
2023-10-20T10:17:12.449Z,19.40
2023-10-20T10:19:53.633Z,22.60
2023-10-20T10:22:32.101Z,21.30
2023-10-20T10:25:05.833Z,21.60
2023-10-20T10:27:40.632Z,20.30
2023-10-20T10:30:17.071Z,22.30
2023-10-20T10:32:51.198Z,20.00
2023-10-20T10:35:24.864Z,16.80
2023-10-20T10:37:58.222Z,22.10
2023-10-20T10:40:33.935Z,22.90
2023-10-20T10:43:07.711Z,21.90
2023-10-20T10:45:41.677Z,23.60
2023-10-20T10:48:16.667Z,21.40
2023-10-20T10:50:50.664Z,23.90
2023-10-20T10:53:23.835Z,20.30
2023-10-20T10:55:57.502Z,21.30
2023-10-20T10:58:32.118Z,18.20
2023-10-20T11:01:05.680Z,18.20
2023-10-20T11:03:39.068Z,20.70
2023-10-20T11:06:12.403Z,20.80
2023-10-20T11:08:48.164Z,19.40
2023-10-20T11:11:21.460Z,21.80
2023-10-20T11:13:54.648Z,21.90
2023-10-20T11:16:27.796Z,14.80
2023-10-20T11:19:03.100Z,20.80
2023-10-20T11:21:50.131Z,20.70
2023-10-20T11:24:32.662Z,22.20
2023-10-20T11:27:07.030Z,21.70
2023-10-20T11:29:57.444Z,22.40
2023-10-20T11:32:32.364Z,22.70
2023-10-20T11:35:07.594Z,24.40
2023-10-20T11:37:40.666Z,23.00
2023-10-20T11:40:15.542Z,22.60
2023-10-20T11:42:49.605Z,23.90
2023-10-20T11:45:23.233Z,23.90
2023-10-20T11:47:56.432Z,21.60
2023-10-20T11:50:29.801Z,20.70
2023-10-20T11:53:03.027Z,19.30
2023-10-20T11:55:36.206Z,22.90
2023-10-20T11:58:09.412Z,22.10
2023-10-20T12:00:44.040Z,19.50
2023-10-20T12:03:17.751Z,21.50
2023-10-20T12:05:52.271Z,22.40
2023-10-20T12:08:26.126Z,26.50
2023-10-20T12:10:59.574Z,23.90
2023-10-20T12:13:36.152Z,22.20
2023-10-20T12:16:10.143Z,24.10
2023-10-20T12:18:44.929Z,23.60
2023-10-20T12:21:18.862Z,24.20
2023-10-20T12:23:52.030Z,23.40
2023-10-20T12:26:25.469Z,25.10
2023-10-20T12:28:59.132Z,23.90
2023-10-20T12:31:32.506Z,23.90
2023-10-20T12:34:06.707Z,22.70
2023-10-20T12:36:40.686Z,24.50
2023-10-20T12:39:19.180Z,25.40
2023-10-20T12:41:52.677Z,23.90
2023-10-20T12:44:27.508Z,23.50
2023-10-20T12:47:01.018Z,23.40
2023-10-20T12:49:34.475Z,23.50
2023-10-20T12:52:08.361Z,23.00
2023-10-20T12:54:43.150Z,23.60
2023-10-20T12:57:16.452Z,24.50
2023-10-20T12:59:49.889Z,24.80
2023-10-20T13:02:23.315Z,23.80
2023-10-20T13:04:56.620Z,24.10
2023-10-20T13:07:29.951Z,23.70
2023-10-20T13:10:05.165Z,23.00
2023-10-20T13:12:38.377Z,23.10
2023-10-20T13:15:18.836Z,23.50
2023-10-20T13:17:59.961Z,18.10
2023-10-20T13:20:35.023Z,24.60
2023-10-20T13:23:08.726Z,22.50
2023-10-20T13:25:42.044Z,23.90
2023-10-20T13:28:15.444Z,22.60
2023-10-20T13:31:07.713Z,24.40
2023-10-20T13:33:42.332Z,22.60
2023-10-20T13:36:23.061Z,24.80
2023-10-20T13:39:17.212Z,29.50
2023-10-20T13:41:57.584Z,31.40
2023-10-20T13:44:36.052Z,26.60
2023-10-20T13:47:10.284Z,26.40
2023-10-20T13:49:45.396Z,26.00
2023-10-20T13:52:18.994Z,27.80
2023-10-20T13:54:52.642Z,28.20
2023-10-20T13:57:30.162Z,30.70
2023-10-20T14:00:10.132Z,27.00
2023-10-20T14:02:52.248Z,26.10
2023-10-20T14:05:31.337Z,26.20
2023-10-20T14:08:13.970Z,25.80
2023-10-20T14:10:49.952Z,26.50
2023-10-20T14:13:23.419Z,24.40
2023-10-20T14:15:56.984Z,27.70
2023-10-20T14:18:30.645Z,26.00
2023-10-20T14:21:04.175Z,23.90
2023-10-20T14:23:37.894Z,24.30
2023-10-20T14:26:12.999Z,18.60
2023-10-20T14:28:51.323Z,23.00
2023-10-20T14:31:26.583Z,23.50
2023-10-20T14:34:10.360Z,23.90
2023-10-20T14:36:47.913Z,16.60
2023-10-20T14:39:24.250Z,24.40
2023-10-20T14:42:04.122Z,22.60
2023-10-20T14:44:44.578Z,22.70
2023-10-20T14:47:32.915Z,19.50
2023-10-20T14:50:19.829Z,23.70
2023-10-20T14:53:07.011Z,25.00
2023-10-20T14:55:53.500Z,23.00
2023-10-20T14:58:37.680Z,28.30
2023-10-20T15:01:24.163Z,23.40
2023-10-20T15:04:17.983Z,22.10
2023-10-20T15:07:04.913Z,23.60
2023-10-20T15:09:40.982Z,28.10
2023-10-20T15:12:19.160Z,19.50
2023-10-20T15:14:55.907Z,22.30
2023-10-20T15:17:30.950Z,21.10
2023-10-20T15:20:07.491Z,20.40
2023-10-20T15:22:45.543Z,23.50
2023-10-20T15:25:24.030Z,22.40
2023-10-20T15:28:07.547Z,19.60
2023-10-20T15:30:47.465Z,21.30
2023-10-20T15:33:27.609Z,21.60
2023-10-20T15:36:09.800Z,21.90
2023-10-20T15:38:46.969Z,22.20
2023-10-20T15:41:28.270Z,20.80
2023-10-20T15:44:05.566Z,20.70
2023-10-20T15:46:46.218Z,18.90
2023-10-20T15:49:22.021Z,18.70
2023-10-20T15:52:02.561Z,22.50
2023-10-20T15:54:39.103Z,23.90
2023-10-20T15:57:16.865Z,20.80
2023-10-20T16:00:00.422Z,20.80
2023-10-20T16:02:39.564Z,22.80
2023-10-20T16:05:15.922Z,21.40
2023-10-20T16:07:53.084Z,21.20
2023-10-20T16:10:28.947Z,19.10
2023-10-20T16:13:05.946Z,20.60
2023-10-20T16:15:45.955Z,19.80
2023-10-20T16:18:21.579Z,21.20
2023-10-20T16:21:03.202Z,20.80
2023-10-20T16:23:41.335Z,20.90
2023-10-20T16:26:19.388Z,19.50
2023-10-20T16:28:54.824Z,20.70
2023-10-20T16:31:31.570Z,21.70
2023-10-20T16:34:06.989Z,16.60
2023-10-20T16:36:43.048Z,21.60
2023-10-20T16:39:19.664Z,19.60
2023-10-20T16:41:57.071Z,21.80
2023-10-20T16:44:33.787Z,22.30
2023-10-20T16:47:13.694Z,19.50
2023-10-20T16:49:52.209Z,21.30
2023-10-20T16:52:32.729Z,20.90
2023-10-20T16:55:11.246Z,21.50
2023-10-20T16:57:59.119Z,22.40
2023-10-20T17:00:47.043Z,21.10
2023-10-20T17:03:26.718Z,22.80
2023-10-20T17:06:05.997Z,20.20
2023-10-20T17:08:45.932Z,20.60
2023-10-20T17:11:25.610Z,21.40
2023-10-20T17:14:08.349Z,20.70
2023-10-20T17:16:45.971Z,11.50
2023-10-20T17:19:28.478Z,19.70
2023-10-20T17:22:13.225Z,20.50
2023-10-20T17:24:57.026Z,21.00
2023-10-20T17:27:36.950Z,22.20
2023-10-20T17:30:20.145Z,22.40
2023-10-20T17:33:01.349Z,29.80
2023-10-20T17:35:49.225Z,21.80
2023-10-20T17:38:29.868Z,22.80
2023-10-20T17:41:14.431Z,23.10
2023-10-20T17:43:54.677Z,23.30
2023-10-20T17:46:34.048Z,21.60
2023-10-20T17:49:13.209Z,20.30
2023-10-20T17:52:01.121Z,22.10
2023-10-20T17:54:37.454Z,19.40
2023-10-20T17:57:20.712Z,21.20
2023-10-20T17:59:58.817Z,21.70
2023-10-20T18:02:38.145Z,21.60
2023-10-20T18:05:20.142Z,26.40
2023-10-20T18:07:58.900Z,22.20
2023-10-20T18:10:36.485Z,23.10
2023-10-20T18:13:18.114Z,22.50
2023-10-20T18:15:57.836Z,23.40
2023-10-20T18:18:45.516Z,28.10
2023-10-20T18:21:26.024Z,18.20
2023-10-20T18:24:14.739Z,24.50
2023-10-20T18:27:00.078Z,23.90
2023-10-20T18:29:44.616Z,23.40
2023-10-20T18:32:30.282Z,27.10
2023-10-20T18:35:12.871Z,24.10
2023-10-20T18:38:00.809Z,26.20
2023-10-20T18:40:45.507Z,25.40
2023-10-20T18:43:26.501Z,24.10
2023-10-20T18:46:06.305Z,23.70
2023-10-20T18:48:49.031Z,23.20
2023-10-20T18:51:33.665Z,25.70
2023-10-20T18:54:21.099Z,24.80
2023-10-20T18:57:00.470Z,24.20
2023-10-20T18:59:40.648Z,25.80
2023-10-20T19:02:24.080Z,25.60
2023-10-20T19:05:08.838Z,24.30
2023-10-20T19:07:49.935Z,28.20
2023-10-20T19:10:37.785Z,24.70
2023-10-20T19:13:18.866Z,23.60
2023-10-20T19:16:23.241Z,24.80
2023-10-20T19:19:08.123Z,25.10
2023-10-20T19:21:55.401Z,27.30
2023-10-20T19:24:36.954Z,26.20
2023-10-20T19:27:26.951Z,25.10
2023-10-20T19:30:12.207Z,22.50
2023-10-20T19:33:01.171Z,22.10
2023-10-20T19:35:43.074Z,25.60
2023-10-20T19:38:23.950Z,21.50
2023-10-20T19:41:10.641Z,24.40
2023-10-20T19:43:57.770Z,23.00
2023-10-20T19:46:41.858Z,21.80
2023-10-20T19:49:26.787Z,23.50
2023-10-20T19:52:17.494Z,23.90
2023-10-20T19:55:09.393Z,22.60
2023-10-20T19:57:59.193Z,23.50
2023-10-20T20:00:45.395Z,24.60
2023-10-20T20:03:30.163Z,21.70
2023-10-20T20:06:21.169Z,23.80
2023-10-20T20:09:07.942Z,27.70
2023-10-20T20:11:58.372Z,27.20
2023-10-20T20:14:54.455Z,30.70
2023-10-20T20:17:38.089Z,23.60
2023-10-20T20:20:22.175Z,24.30
2023-10-20T20:23:05.838Z,24.70
2023-10-20T20:25:42.841Z,24.90
2023-10-20T20:28:25.373Z,25.50
2023-10-20T20:31:17.517Z,25.90
2023-10-20T20:33:55.319Z,23.60
2023-10-20T20:36:32.192Z,23.70
2023-10-20T20:39:16.712Z,22.60
2023-10-20T20:42:02.545Z,23.00
2023-10-20T20:44:49.695Z,25.00
2023-10-20T20:47:24.434Z,24.60
2023-10-20T20:50:06.770Z,24.10
2023-10-20T20:52:45.980Z,25.90
2023-10-20T20:55:30.669Z,22.70
2023-10-20T20:58:07.036Z,24.60
2023-10-20T21:00:42.793Z,25.10
2023-10-20T21:03:19.123Z,25.00
2023-10-20T21:06:04.874Z,22.40
2023-10-20T21:08:42.102Z,24.40
2023-10-20T21:11:21.847Z,21.50
2023-10-20T21:14:07.267Z,21.20
2023-10-20T21:16:48.368Z,24.10
2023-10-20T21:19:26.921Z,23.40
2023-10-20T21:22:08.011Z,22.60
2023-10-20T21:24:50.014Z,23.00
2023-10-20T21:27:34.378Z,23.30
2023-10-20T21:30:13.278Z,23.60
2023-10-20T21:32:49.771Z,23.40
2023-10-20T21:35:24.522Z,24.50
2023-10-20T21:37:58.992Z,21.80
2023-10-20T21:40:33.904Z,22.30
2023-10-20T21:43:08.746Z,21.60
2023-10-20T21:45:43.275Z,19.90
2023-10-20T21:48:30.007Z,20.70
2023-10-20T21:51:05.652Z,21.40
2023-10-20T21:53:40.120Z,21.10
2023-10-20T21:56:15.532Z,22.80
2023-10-20T21:58:50.465Z,23.20
2023-10-20T22:01:27.293Z,24.40
2023-10-20T22:04:02.411Z,20.60
2023-10-20T22:06:36.997Z,21.30
2023-10-20T22:09:11.729Z,23.20
2023-10-20T22:11:48.239Z,22.60
2023-10-20T22:14:23.367Z,23.90
2023-10-20T22:16:58.748Z,21.50
2023-10-20T22:19:36.724Z,18.80
2023-10-20T22:22:13.691Z,21.80
2023-10-20T22:24:50.009Z,20.90
2023-10-20T22:27:28.860Z,23.60
2023-10-20T22:30:04.312Z,23.70
2023-10-20T22:32:40.362Z,21.40
2023-10-20T22:35:19.075Z,23.00
2023-10-20T22:37:55.021Z,22.50
2023-10-20T22:40:29.601Z,21.80
2023-10-20T22:43:04.613Z,21.80
2023-10-20T22:45:46.119Z,24.10
2023-10-20T22:48:22.511Z,23.40
2023-10-20T22:51:02.970Z,21.30
2023-10-20T22:53:37.821Z,22.40
2023-10-20T22:56:13.994Z,23.70
2023-10-20T22:58:51.011Z,20.00
2023-10-20T23:01:26.382Z,22.30
2023-10-20T23:04:02.093Z,21.60
2023-10-20T23:06:36.912Z,18.60
2023-10-20T23:09:12.162Z,22.10
2023-10-20T23:11:47.292Z,19.00
2023-10-20T23:14:21.603Z,16.80
2023-10-20T23:16:55.747Z,19.00
2023-10-20T23:19:29.805Z,19.60
2023-10-20T23:22:03.444Z,17.90
2023-10-20T23:24:37.358Z,16.60
2023-10-20T23:27:11.908Z,18.00
2023-10-20T23:29:46.299Z,14.20
2023-10-20T23:32:19.874Z,15.60
2023-10-20T23:34:53.320Z,18.50
2023-10-20T23:37:26.705Z,15.80
2023-10-20T23:40:00.030Z,14.10
2023-10-20T23:42:33.673Z,14.10
2023-10-20T23:45:08.697Z,15.40
2023-10-20T23:47:42.943Z,15.30
2023-10-20T23:50:17.062Z,14.80
2023-10-20T23:52:51.572Z,16.30
2023-10-20T23:55:25.151Z,14.70
2023-10-20T23:57:59.833Z,15.20
